Terminal Aerodrome Forecast
Issued by NWS Grand Rapids, MI

Home | Current Version | Previous Version | Text Only | Print | Product List | Glossary On
Versions: 1 2 3 4 5 6 7 8 9 10 11 12 13 14 15 16 17 18 19 20 21 22
867
FTUS43 KGRR 071140
TAFGRR
TAF
KGRR 071140Z 0712/0812 19008KT P6SM BKN100
     FM071400 20014G22KT P6SM BKN120 BKN250
     FM072100 21008KT P6SM OVC025
     FM080700 22003KT 4SM BR OVC025
     FM081000 24003KT 2SM -SN BR OVC015=

USA.gov is the U.S. government's official web portal to all federal, state and local government web resources and services.